»·PEaware :: N449R KSNA-KCRQ

N449R :: KSNA-KCRQ

FLIGHT INFORMATION

Flight Status: Arrived
Operator: Privately registered:
United States
More flights under this callsign
Pilot: Clayton C. (35004)
Aircraft: PIPER PA-28 CHEROKEE ARCHER
(P28A)
More flights by this aircraft type
Origin: KSNA John Wayne-Orange Co
United States
Destination: KCRQ McClellan-Palomar
United States
More flights between these airports :: More routes between these airports
Route: V23 OCN
File this flight plan on PilotEdge
Remarks: Piper Arrow III
Altitude:
(Current/Filed)
5,000ft
Speed:
(Current/Filed)
130kts
Departed: 06-Oct-21 05:43 PM
Arrived: 06-Oct-21 06:26 PM
Distance/Time
Traveled:
44nm/0:43
Distance/Time
To Go:
Arrived

Flight Plot

Page will automatically refresh every two minutes.


Map Options




Map Legend


Flown Route
Filed Route
Departure Airport
Arrival Airport
Navaid (VOR, NDB)
Fix

Horizontal Profiles

Position Reports

Time Latitude Longitude Heading Altitude Ground
Speed
06-Oct-21 17:29 33.670953 -117.868278 186 53ft 0kts
06-Oct-21 17:30 33.670953 -117.868278 186 53ft 0kts
06-Oct-21 17:31 33.670953 -117.868278 186 53ft 0kts
06-Oct-21 17:32 33.670953 -117.868278 186 53ft 0kts
06-Oct-21 17:33 33.670953 -117.868278 186 53ft 0kts
06-Oct-21 17:34 33.670953 -117.868278 186 53ft 0kts
06-Oct-21 17:35 33.670953 -117.868278 186 53ft 0kts
06-Oct-21 17:36 33.670953 -117.868278 186 53ft 0kts
06-Oct-21 17:37 33.672571 -117.867845 28 55ft 14kts
06-Oct-21 17:38 33.675340 -117.866723 27 56ft 11kts
06-Oct-21 17:39 33.678461 -117.864748 27 48ft 24kts
06-Oct-21 17:40 33.679966 -117.863775 313 45ft 0kts
06-Oct-21 17:41 33.679966 -117.863775 313 45ft 0kts
06-Oct-21 17:42 33.672117 -117.869249 209 160ft 86kts
06-Oct-21 17:43 33.649732 -117.875679 189 1082ft 87kts
06-Oct-21 17:44 33.625054 -117.879361 186 2018ft 88kts
06-Oct-21 17:45 33.597874 -117.883272 193 2787ft 104kts
06-Oct-21 17:46 33.577727 -117.862241 120 3514ft 110kts
06-Oct-21 17:47 33.562054 -117.832078 120 4334ft 108kts
06-Oct-21 17:48 33.546164 -117.799821 123 4933ft 121kts
06-Oct-21 17:49 33.526923 -117.762896 123 4974ft 137kts
06-Oct-21 17:50 33.506020 -117.724206 123 4945ft 138kts
06-Oct-21 17:51 33.483894 -117.686989 126 4937ft 135kts
06-Oct-21 17:52 33.462281 -117.650945 135 4946ft 133kts
06-Oct-21 17:53 33.434578 -117.621485 139 4939ft 132kts
06-Oct-21 17:54 33.406850 -117.593321 141 4942ft 132kts
06-Oct-21 17:55 33.379070 -117.564251 135 4939ft 132kts
06-Oct-21 17:56 33.352590 -117.533147 139 4938ft 133kts
06-Oct-21 17:57 33.323842 -117.505514 143 4937ft 132kts
06-Oct-21 17:58 33.297285 -117.476039 137 4938ft 131kts
06-Oct-21 17:59 33.269447 -117.447261 142 4937ft 132kts
06-Oct-21 18:00 33.240677 -117.419508 142 4937ft 133kts
06-Oct-21 18:01 33.212767 -117.390831 133 4937ft 132kts
06-Oct-21 18:02 33.187283 -117.358964 135 4938ft 133kts
06-Oct-21 18:03 33.168237 -117.325795 70 4939ft 130kts
06-Oct-21 18:04 33.184344 -117.286534 59 4941ft 133kts
06-Oct-21 18:05 33.203155 -117.248277 58 4938ft 133kts
06-Oct-21 18:06 33.222054 -117.209970 58 4940ft 134kts
06-Oct-21 18:07 33.240898 -117.171786 58 4944ft 130kts
06-Oct-21 18:08 33.259544 -117.133990 58 4943ft 133kts
06-Oct-21 18:09 33.278537 -117.095768 58 4939ft 133kts
06-Oct-21 18:10 33.297522 -117.057667 58 4938ft 133kts
06-Oct-21 18:11 33.316435 -117.019740 58 4938ft 132kts
06-Oct-21 18:12 33.315916 -116.987385 175 4944ft 127kts
06-Oct-21 18:13 33.280248 -116.986351 182 4939ft 129kts
06-Oct-21 18:14 33.244253 -116.986457 182 4942ft 129kts
06-Oct-21 18:15 33.208293 -116.986626 182 4939ft 129kts
06-Oct-21 18:16 33.172332 -116.987509 203 4832ft 132kts
06-Oct-21 18:18 33.164275 -117.027815 270 4194ft 135kts
06-Oct-21 18:19 33.162693 -117.071278 268 3619ft 127kts
06-Oct-21 18:20 33.155346 -117.108990 262 3553ft 103kts
06-Oct-21 18:21 33.151139 -117.143246 254 3456ft 113kts
06-Oct-21 18:22 33.144403 -117.183504 248 2199ft 105kts
06-Oct-21 18:23 33.138223 -117.216286 254 1380ft 91kts
06-Oct-21 18:24 33.133730 -117.245442 258 1023ft 93kts
06-Oct-21 18:25 33.129330 -117.273402 257 343ft 66kts
06-Oct-21 18:26 33.129000 -117.280202 339 330ft 0kts

Navigation Log

Ident Type
Flight plan parsing failed, navigation log unavailable